logo
Search for airport 
image banner adimage banner adimage banner ad
image banner ad

YSPK - Spring Creek

Located in Mount Garnet, Australia

ICAO - YSPK, IATA - SCG

Data provided by Airmate  

General information

Coordinates: S18°37'12" E144°34'19"
Elevation is 1700 feet MSL.
Magnetic variation is 7° East
View others Airports in Queensland

Operational data

Special qualification required
Current time UTC:
Current local time:
Weather at : - ( 0 km )
METAR: PAPG 130305Z 07003KT 4SM -RA BR BKN014 OVC036 14/13 A3022 RMK AO2 RAB03 P0000
View NOTAMs / SUP AIP / TFR affecting this airport [VIEW]
Communications frequencies: [VIEW]

Runways:

RWY identifierQFULength (ft)Width (ft)SurfaceLDA (ft)
0889°253542DIRT
26269°253542DIRT

Airport contact information

Address: Mount Garnet Australia

Satellite view of YSPK